createdAt,value
2023-04-10T00:00:38.001Z,7.96
2023-04-10T00:01:37.997Z,7.95
2023-04-10T00:02:38.162Z,7.94
2023-04-10T00:03:38.281Z,7.94
2023-04-10T00:04:38.098Z,7.92
2023-04-10T00:05:37.928Z,7.87
2023-04-10T00:06:37.914Z,7.87
2023-04-10T00:07:37.921Z,7.88
2023-04-10T00:08:37.901Z,7.86
2023-04-10T00:09:37.886Z,7.83
2023-04-10T00:10:37.889Z,7.78
2023-04-10T00:11:37.866Z,7.78
2023-04-10T00:12:38.010Z,7.78
2023-04-10T00:13:37.836Z,7.76
2023-04-10T00:14:37.833Z,7.74
2023-04-10T00:15:37.813Z,7.73
2023-04-10T00:16:37.850Z,7.74
2023-04-10T00:17:37.841Z,7.76
2023-04-10T00:18:37.802Z,7.76
2023-04-10T00:19:37.776Z,7.76
2023-04-10T00:20:37.786Z,7.77
2023-04-10T00:21:37.756Z,7.78
2023-04-10T00:22:37.751Z,7.78
2023-04-10T00:23:37.798Z,7.77
2023-04-10T00:24:37.727Z,7.76
2023-04-10T00:25:37.718Z,7.74
2023-04-10T00:26:37.717Z,7.73
2023-04-10T00:27:37.692Z,7.69
2023-04-10T00:28:37.707Z,7.73
2023-04-10T00:29:37.679Z,7.73
2023-04-10T00:30:37.680Z,7.73
2023-04-10T00:31:37.706Z,7.73
2023-04-10T00:32:37.668Z,7.69
2023-04-10T00:33:37.640Z,7.68
2023-04-10T00:34:37.619Z,7.69
2023-04-10T00:35:37.646Z,7.69
2023-04-10T00:36:37.604Z,7.68
2023-04-10T00:37:37.585Z,7.64
2023-04-10T00:38:37.610Z,7.64
2023-04-10T00:39:37.568Z,7.64
2023-04-10T00:40:37.577Z,7.60
2023-04-10T00:41:37.556Z,7.57
2023-04-10T00:42:37.548Z,7.57
2023-04-10T00:43:37.555Z,7.60
2023-04-10T00:44:37.520Z,7.60
2023-04-10T00:45:37.518Z,7.58
2023-04-10T00:46:37.494Z,7.57
2023-04-10T00:47:37.525Z,7.54
2023-04-10T00:48:37.484Z,7.52
2023-04-10T00:49:37.463Z,7.50
2023-04-10T00:50:37.450Z,7.52
2023-04-10T00:51:37.444Z,7.44
2023-04-10T00:52:37.432Z,7.43
2023-04-10T00:53:37.430Z,7.43
2023-04-10T00:54:37.409Z,7.42
2023-04-10T00:55:37.426Z,7.39
2023-04-10T00:56:37.397Z,7.39
2023-04-10T00:57:37.372Z,7.36
2023-04-10T00:58:37.384Z,7.33
2023-04-10T00:59:37.355Z,7.31
2023-04-10T01:00:37.351Z,7.31
2023-04-10T01:01:37.395Z,7.31
2023-04-10T01:02:37.418Z,7.29
2023-04-10T01:03:37.505Z,7.28
2023-04-10T01:04:37.732Z,7.28
2023-04-10T01:05:37.296Z,7.26
2023-04-10T01:06:37.290Z,7.24
2023-04-10T01:07:37.273Z,7.24
2023-04-10T01:08:37.285Z,7.22
2023-04-10T01:09:37.266Z,7.18
2023-04-10T01:10:37.242Z,7.16
2023-04-10T01:11:37.237Z,7.16
2023-04-10T01:12:37.229Z,7.13
2023-04-10T01:13:37.216Z,7.08
2023-04-10T01:14:37.200Z,7.07
2023-04-10T01:15:37.212Z,7.10
2023-04-10T01:16:37.205Z,7.11
2023-04-10T01:17:37.209Z,7.16
2023-04-10T01:18:37.177Z,7.16
2023-04-10T01:19:37.168Z,7.11
2023-04-10T01:20:37.145Z,7.10
2023-04-10T01:21:37.121Z,7.07
2023-04-10T01:22:37.115Z,7.03
2023-04-10T01:23:37.110Z,7.01
2023-04-10T01:24:37.104Z,7.00
2023-04-10T01:25:37.083Z,7.00
2023-04-10T01:26:37.077Z,6.99
2023-04-10T01:27:37.064Z,6.97
2023-04-10T01:28:37.081Z,7.00
2023-04-10T01:29:37.037Z,7.01
2023-04-10T01:30:37.058Z,6.97
2023-04-10T01:31:37.060Z,6.91
2023-04-10T01:32:37.054Z,6.88
2023-04-10T01:33:37.031Z,6.86
2023-04-10T01:34:37.066Z,6.88
2023-04-10T01:35:37.050Z,6.93
2023-04-10T01:36:36.976Z,6.97
2023-04-10T01:37:36.955Z,6.96
2023-04-10T01:38:36.962Z,6.96
2023-04-10T01:39:36.941Z,6.92
2023-04-10T01:40:36.931Z,6.91
2023-04-10T01:41:36.914Z,6.91
2023-04-10T01:42:36.906Z,6.89
2023-04-10T01:43:36.906Z,6.86
2023-04-10T01:44:36.887Z,6.83
2023-04-10T01:45:36.874Z,6.83
2023-04-10T01:46:36.925Z,6.83
2023-04-10T01:47:36.875Z,6.83
2023-04-10T01:48:36.866Z,6.85
2023-04-10T01:49:36.830Z,6.83
2023-04-10T01:50:36.832Z,6.82
2023-04-10T01:51:36.812Z,6.81
2023-04-10T01:52:36.807Z,6.81
2023-04-10T01:53:36.812Z,6.82
2023-04-10T01:54:36.792Z,6.79
2023-04-10T01:55:36.773Z,6.79
2023-04-10T01:56:36.777Z,6.75
2023-04-10T01:57:36.759Z,6.79
2023-04-10T01:58:36.764Z,6.75
2023-04-10T01:59:36.730Z,6.73
2023-04-10T02:00:36.731Z,6.70
2023-04-10T02:01:36.809Z,6.67
2023-04-10T02:02:36.773Z,6.64
2023-04-10T02:03:36.937Z,6.63
2023-04-10T02:04:36.769Z,6.63
2023-04-10T02:05:36.665Z,6.57
2023-04-10T02:06:36.668Z,6.57
2023-04-10T02:07:36.656Z,6.57
2023-04-10T02:08:36.671Z,6.61
2023-04-10T02:09:36.637Z,6.61
2023-04-10T02:10:36.630Z,6.60
2023-04-10T02:11:36.618Z,6.57
2023-04-10T02:12:36.599Z,6.55
2023-04-10T02:13:36.605Z,6.55
2023-04-10T02:14:36.585Z,6.56
2023-04-10T02:15:36.590Z,6.55
2023-04-10T02:16:36.562Z,6.53
2023-04-10T02:17:36.576Z,6.47
2023-04-10T02:18:36.555Z,6.46
2023-04-10T02:19:36.544Z,6.45
2023-04-10T02:20:36.518Z,6.45
2023-04-10T02:21:36.503Z,6.43
2023-04-10T02:22:36.492Z,6.46
2023-04-10T02:23:36.510Z,6.49
2023-04-10T02:24:36.482Z,6.50
2023-04-10T02:25:36.453Z,6.46
2023-04-10T02:26:36.460Z,6.46
2023-04-10T02:27:36.433Z,6.42
2023-04-10T02:28:36.458Z,6.42
2023-04-10T02:29:36.414Z,6.40
2023-04-10T02:30:36.413Z,6.38
2023-04-10T02:31:36.444Z,6.35
2023-04-10T02:32:36.456Z,6.32
2023-04-10T02:33:36.409Z,6.34
2023-04-10T02:34:36.373Z,6.34
2023-04-10T02:35:36.377Z,6.32
2023-04-10T02:36:36.352Z,6.32
2023-04-10T02:37:36.338Z,6.31
2023-04-10T02:38:36.366Z,6.31
2023-04-10T02:39:36.318Z,6.30
2023-04-10T02:40:36.322Z,6.30
2023-04-10T02:41:36.300Z,6.30
2023-04-10T02:42:36.297Z,6.31
2023-04-10T02:43:36.298Z,6.28
2023-04-10T02:44:36.277Z,6.27
2023-04-10T02:45:36.259Z,6.27
2023-04-10T02:46:36.270Z,6.27
2023-04-10T02:47:36.320Z,6.27
2023-04-10T02:48:36.238Z,6.25
2023-04-10T02:49:36.216Z,6.24
2023-04-10T02:50:36.210Z,6.19
2023-04-10T02:51:36.206Z,6.24
2023-04-10T02:52:36.196Z,6.25
2023-04-10T02:53:36.178Z,6.27
2023-04-10T02:54:36.179Z,6.25
2023-04-10T02:55:36.146Z,6.27
2023-04-10T02:56:36.150Z,6.25
2023-04-10T02:57:36.133Z,6.21
2023-04-10T02:58:36.137Z,6.18
2023-04-10T02:59:36.103Z,6.15
2023-04-10T03:00:36.105Z,6.13
2023-04-10T03:01:36.170Z,6.15
2023-04-10T03:02:36.124Z,6.13
2023-04-10T03:03:36.247Z,6.13
2023-04-10T03:04:36.108Z,6.09
2023-04-10T03:05:36.046Z,6.12
2023-04-10T03:06:36.040Z,6.12
2023-04-10T03:07:36.023Z,6.13
2023-04-10T03:08:36.040Z,6.12
2023-04-10T03:09:36.003Z,6.09
2023-04-10T03:10:35.996Z,6.08
2023-04-10T03:11:35.990Z,6.06
2023-04-10T03:12:35.964Z,6.03
2023-04-10T03:13:36.017Z,6.05
2023-04-10T03:14:35.973Z,6.05
2023-04-10T03:15:35.950Z,6.08
2023-04-10T03:16:35.980Z,6.11
2023-04-10T03:17:35.964Z,6.11
2023-04-10T03:18:35.928Z,6.08
2023-04-10T03:19:35.915Z,6.03
2023-04-10T03:20:35.887Z,6.05
2023-04-10T03:21:35.884Z,6.03
2023-04-10T03:22:35.863Z,6.00
2023-04-10T03:23:35.898Z,5.95
2023-04-10T03:24:35.844Z,5.91
2023-04-10T03:25:35.855Z,5.94
2023-04-10T03:26:35.822Z,5.93
2023-04-10T03:27:35.826Z,5.88
2023-04-10T03:28:35.820Z,5.87
2023-04-10T03:29:35.794Z,5.84
2023-04-10T03:30:35.799Z,5.82
2023-04-10T03:31:35.820Z,5.80
2023-04-10T03:32:35.758Z,5.85
2023-04-10T03:33:35.775Z,5.87
2023-04-10T03:34:35.753Z,5.87
2023-04-10T03:35:35.756Z,5.85
2023-04-10T03:36:35.716Z,5.82
2023-04-10T03:37:35.712Z,5.82
2023-04-10T03:38:35.697Z,5.85
2023-04-10T03:39:35.705Z,5.85
2023-04-10T03:40:35.675Z,5.82
2023-04-10T03:41:35.674Z,5.77
2023-04-10T03:42:35.677Z,5.77
2023-04-10T03:43:35.654Z,5.79
2023-04-10T03:44:35.647Z,5.77
2023-04-10T03:45:35.632Z,5.73
2023-04-10T03:46:35.659Z,5.73
2023-04-10T03:47:35.622Z,5.70
2023-04-10T03:48:35.613Z,5.67
2023-04-10T03:49:35.601Z,5.65
2023-04-10T03:50:35.577Z,5.67
2023-04-10T03:51:35.567Z,5.66
2023-04-10T03:52:35.547Z,5.62
2023-04-10T03:53:35.545Z,5.59
2023-04-10T03:54:35.540Z,5.59
2023-04-10T03:55:35.525Z,5.61
2023-04-10T03:56:35.507Z,5.59
2023-04-10T03:57:35.507Z,5.58
2023-04-10T03:58:35.485Z,5.59
2023-04-10T03:59:38.812Z,5.57
2023-04-10T04:00:35.477Z,5.55
2023-04-10T04:01:35.491Z,5.59
2023-04-10T04:02:35.656Z,5.58
2023-04-10T04:03:35.555Z,5.57
2023-04-10T04:04:35.591Z,5.52
2023-04-10T04:05:35.431Z,5.52
2023-04-10T04:06:35.404Z,5.55
2023-04-10T04:07:35.403Z,5.55
2023-04-10T04:08:35.385Z,5.54
2023-04-10T04:09:35.406Z,5.52
2023-04-10T04:10:35.376Z,5.48
2023-04-10T04:11:35.360Z,5.48
2023-04-10T04:12:35.340Z,5.50
2023-04-10T04:13:35.336Z,5.51
2023-04-10T04:14:35.342Z,5.47
2023-04-10T04:15:35.316Z,5.44
2023-04-10T04:16:35.357Z,5.48
2023-04-10T04:17:35.301Z,5.50
2023-04-10T04:18:35.284Z,5.50
2023-04-10T04:19:35.287Z,5.47
2023-04-10T04:20:35.265Z,5.50
2023-04-10T04:21:35.252Z,5.47
2023-04-10T04:22:35.241Z,5.43
2023-04-10T04:23:35.229Z,5.41
2023-04-10T04:24:35.227Z,5.44
2023-04-10T04:25:35.212Z,5.43
2023-04-10T04:26:35.194Z,5.40
2023-04-10T04:27:35.195Z,5.39
2023-04-10T04:28:35.177Z,5.34
2023-04-10T04:29:35.189Z,5.32
2023-04-10T04:30:35.118Z,5.30
2023-04-10T04:31:35.122Z,5.33
2023-04-10T04:32:35.182Z,5.34
2023-04-10T04:33:35.140Z,5.32
2023-04-10T04:34:35.132Z,5.27
2023-04-10T04:35:35.144Z,5.24
2023-04-10T04:36:35.097Z,5.25
2023-04-10T04:37:35.090Z,5.27
2023-04-10T04:38:35.071Z,5.29
2023-04-10T04:39:35.082Z,5.27
2023-04-10T04:40:35.068Z,5.27
2023-04-10T04:41:35.055Z,5.25
2023-04-10T04:42:35.030Z,5.27
2023-04-10T04:43:35.030Z,5.27
2023-04-10T04:44:34.990Z,5.24
2023-04-10T04:45:35.048Z,5.24
2023-04-10T04:46:34.990Z,5.24
2023-04-10T04:47:35.004Z,5.24
2023-04-10T04:48:34.971Z,5.24
2023-04-10T04:49:34.933Z,5.22
2023-04-10T04:50:34.915Z,5.19
2023-04-10T04:51:34.885Z,5.25
2023-04-10T04:52:34.876Z,5.25
2023-04-10T04:53:34.876Z,5.24
2023-04-10T04:54:34.873Z,5.27
2023-04-10T04:55:34.852Z,5.29
2023-04-10T04:56:34.830Z,5.29
2023-04-10T04:57:34.842Z,5.32
2023-04-10T04:58:34.811Z,5.32
2023-04-10T04:59:34.821Z,5.34
2023-04-10T05:00:34.791Z,5.33
2023-04-10T05:01:34.854Z,5.33
2023-04-10T05:02:34.935Z,5.32
2023-04-10T05:03:34.835Z,5.30
2023-04-10T05:04:34.762Z,5.32
2023-04-10T05:05:34.747Z,5.32
2023-04-10T05:06:34.729Z,5.30
2023-04-10T05:07:34.718Z,5.29
2023-04-10T05:08:34.704Z,5.29
2023-04-10T05:09:34.722Z,5.30
2023-04-10T05:10:34.683Z,5.30
2023-04-10T05:11:34.690Z,5.32
2023-04-10T05:12:34.660Z,5.33
2023-04-10T05:13:34.661Z,5.30
2023-04-10T05:14:34.659Z,5.32
2023-04-10T05:15:34.650Z,5.33
2023-04-10T05:16:34.628Z,5.34
2023-04-10T05:17:34.651Z,5.37
2023-04-10T05:18:34.634Z,5.39
2023-04-10T05:19:34.610Z,5.37
2023-04-10T05:20:34.586Z,5.34
2023-04-10T05:21:34.571Z,5.37
2023-04-10T05:22:34.587Z,5.40
2023-04-10T05:23:34.560Z,5.41
2023-04-10T05:24:34.558Z,5.44
2023-04-10T05:25:34.532Z,5.41
2023-04-10T05:26:34.513Z,5.43
2023-04-10T05:27:34.516Z,5.44
2023-04-10T05:28:34.513Z,5.43
2023-04-10T05:29:34.509Z,5.43
2023-04-10T05:30:34.473Z,5.47
2023-04-10T05:31:34.483Z,5.48
2023-04-10T05:32:34.486Z,5.48
2023-04-10T05:33:34.444Z,5.52
2023-04-10T05:34:34.448Z,5.55
2023-04-10T05:35:34.446Z,5.59
2023-04-10T05:36:34.408Z,5.58
2023-04-10T05:37:34.405Z,5.57
2023-04-10T05:38:34.413Z,5.57
2023-04-10T05:39:34.411Z,5.55
2023-04-10T05:40:34.374Z,5.54
2023-04-10T05:41:34.400Z,5.51
2023-04-10T05:42:34.349Z,5.52
2023-04-10T05:43:34.349Z,5.55
2023-04-10T05:44:34.345Z,5.59
2023-04-10T05:45:34.328Z,5.61
2023-04-10T05:46:34.373Z,5.61
2023-04-10T05:47:34.332Z,5.59
2023-04-10T05:48:34.286Z,5.65
2023-04-10T05:49:34.295Z,5.65
2023-04-10T05:50:34.272Z,5.65
2023-04-10T05:51:34.261Z,5.62
2023-04-10T05:52:34.250Z,5.61
2023-04-10T05:53:34.251Z,5.62
2023-04-10T05:54:34.248Z,5.66
2023-04-10T05:55:34.219Z,5.70
2023-04-10T05:56:34.203Z,5.79
2023-04-10T05:57:34.209Z,5.80
2023-04-10T05:58:34.188Z,5.84
2023-04-10T05:59:34.195Z,5.87
2023-04-10T06:00:34.167Z,5.90
2023-04-10T06:01:34.170Z,5.91
2023-04-10T06:02:34.322Z,5.94
2023-04-10T06:03:34.179Z,5.95
2023-04-10T06:04:34.294Z,5.98
2023-04-10T06:05:34.119Z,6.02
2023-04-10T06:06:34.106Z,6.03
2023-04-10T06:07:34.101Z,6.12
2023-04-10T06:08:34.102Z,6.12
2023-04-10T06:09:34.083Z,6.12
2023-04-10T06:10:34.059Z,6.21
2023-04-10T06:11:34.091Z,6.30
2023-04-10T06:12:34.034Z,6.35
2023-04-10T06:13:34.045Z,6.37
2023-04-10T06:14:34.026Z,6.43
2023-04-10T06:15:34.020Z,6.43
2023-04-10T06:16:34.039Z,6.45
2023-04-10T06:17:34.023Z,6.46
2023-04-10T06:18:33.973Z,6.47
2023-04-10T06:19:33.987Z,6.49
2023-04-10T06:20:33.956Z,6.52
2023-04-10T06:21:33.959Z,6.53
2023-04-10T06:22:33.934Z,6.56
2023-04-10T06:23:33.941Z,6.56
2023-04-10T06:24:33.929Z,6.61
2023-04-10T06:25:33.910Z,6.65
2023-04-10T06:26:33.891Z,6.68
2023-04-10T06:27:33.882Z,6.73
2023-04-10T06:28:33.871Z,6.79
2023-04-10T06:29:33.880Z,6.85
2023-04-10T06:30:33.849Z,6.91
2023-04-10T06:31:33.886Z,6.93
2023-04-10T06:32:33.879Z,7.00
2023-04-10T06:33:33.823Z,7.03
2023-04-10T06:34:33.821Z,7.04
2023-04-10T06:35:33.826Z,7.08
2023-04-10T06:36:33.802Z,7.11
2023-04-10T06:37:33.793Z,7.15
2023-04-10T06:38:33.775Z,7.18
2023-04-10T06:39:33.765Z,7.22
2023-04-10T06:40:33.772Z,7.25
2023-04-10T06:41:33.740Z,7.31
2023-04-10T06:42:33.747Z,7.34
2023-04-10T06:43:33.723Z,7.40
2023-04-10T06:44:33.709Z,7.44
2023-04-10T06:45:33.716Z,7.49
2023-04-10T06:46:33.704Z,7.54
2023-04-10T06:47:33.745Z,7.60
2023-04-10T06:48:33.671Z,7.64
2023-04-10T06:49:33.658Z,7.74
2023-04-10T06:50:33.767Z,7.80
2023-04-10T06:51:33.644Z,7.84
2023-04-10T06:52:33.631Z,7.88
2023-04-10T06:53:33.623Z,7.92
2023-04-10T06:54:33.620Z,7.96
2023-04-10T06:55:33.617Z,8.02
2023-04-10T06:56:33.591Z,8.06
2023-04-10T06:57:33.576Z,8.12
2023-04-10T06:58:33.563Z,8.14
2023-04-10T06:59:33.553Z,8.20
2023-04-10T07:00:33.605Z,8.24
2023-04-10T07:01:33.556Z,8.29
2023-04-10T07:02:33.578Z,8.34
2023-04-10T07:03:33.546Z,8.39
2023-04-10T07:04:33.497Z,8.46
2023-04-10T07:05:33.504Z,8.52
2023-04-10T07:06:33.478Z,8.56
2023-04-10T07:07:33.470Z,8.63
2023-04-10T07:08:33.456Z,8.70
2023-04-10T07:09:33.449Z,8.75
2023-04-10T07:10:33.445Z,8.80
2023-04-10T07:11:33.434Z,8.86
2023-04-10T07:12:33.415Z,8.92
2023-04-10T07:13:33.488Z,8.98
2023-04-10T07:14:33.394Z,9.01
2023-04-10T07:15:33.403Z,9.09
2023-04-10T07:16:33.387Z,9.12
2023-04-10T07:17:33.385Z,9.19
2023-04-10T07:18:33.352Z,9.26
2023-04-10T07:19:33.350Z,9.30
2023-04-10T07:20:33.338Z,9.34
2023-04-10T07:21:33.322Z,9.41
2023-04-10T07:22:33.413Z,9.47
2023-04-10T07:23:33.302Z,9.51
2023-04-10T07:24:33.289Z,9.57
2023-04-10T07:25:33.301Z,9.63
2023-04-10T07:26:33.268Z,9.70
2023-04-10T07:27:33.272Z,9.75
2023-04-10T07:28:33.255Z,9.80
2023-04-10T07:29:33.235Z,9.85
2023-04-10T07:30:33.238Z,9.87
2023-04-10T07:31:33.283Z,9.91
2023-04-10T07:32:33.341Z,9.96
2023-04-10T07:33:33.259Z,9.99
2023-04-10T07:34:33.205Z,10.03
2023-04-10T07:35:33.192Z,10.06
2023-04-10T07:36:33.168Z,10.08
2023-04-10T07:37:33.145Z,10.12
2023-04-10T07:38:33.141Z,10.16
2023-04-10T07:39:33.124Z,10.20
2023-04-10T07:40:33.148Z,10.24
2023-04-10T07:41:33.111Z,10.30
2023-04-10T07:42:33.103Z,10.35
2023-04-10T07:43:33.081Z,10.41
2023-04-10T07:44:33.079Z,10.43
2023-04-10T07:45:33.129Z,10.52
2023-04-10T07:46:33.057Z,10.57
2023-04-10T07:47:33.068Z,10.62
2023-04-10T07:48:33.043Z,10.67
2023-04-10T07:49:33.018Z,10.75
2023-04-10T07:50:33.029Z,10.82
2023-04-10T07:51:33.000Z,10.90
2023-04-10T07:52:32.996Z,11.00
2023-04-10T07:53:32.979Z,11.05
2023-04-10T07:54:32.979Z,11.16
2023-04-10T07:55:32.970Z,11.23
2023-04-10T07:56:32.963Z,11.27
2023-04-10T07:57:32.935Z,11.36
2023-04-10T07:58:32.950Z,11.43
2023-04-10T07:59:32.920Z,11.49
2023-04-10T08:00:32.934Z,11.54
2023-04-10T08:01:32.899Z,11.59
2023-04-10T08:02:33.105Z,11.67
2023-04-10T08:03:33.040Z,11.74
2023-04-10T08:04:32.979Z,11.80
2023-04-10T08:05:32.874Z,11.88
2023-04-10T08:06:32.851Z,11.96
2023-04-10T08:07:32.838Z,12.05
2023-04-10T08:08:32.828Z,12.14
2023-04-10T08:09:32.818Z,12.25
2023-04-10T08:10:32.820Z,12.35
2023-04-10T08:11:33.217Z,12.44
2023-04-10T08:12:32.782Z,12.53
2023-04-10T08:13:32.767Z,12.63
2023-04-10T08:14:32.778Z,12.71
2023-04-10T08:15:32.762Z,12.80
2023-04-10T08:16:32.777Z,12.84
2023-04-10T08:17:32.745Z,12.91
2023-04-10T08:18:32.721Z,12.98
2023-04-10T08:19:32.705Z,13.06
2023-04-10T08:20:32.712Z,13.19
2023-04-10T08:21:32.724Z,13.27
2023-04-10T08:22:32.679Z,13.38
2023-04-10T08:23:32.671Z,13.43
2023-04-10T08:24:32.662Z,13.53
2023-04-10T08:25:32.648Z,13.60
2023-04-10T08:26:32.673Z,13.72
2023-04-10T08:27:32.619Z,13.82
2023-04-10T08:28:32.615Z,13.90
2023-04-10T08:29:32.596Z,14.00
2023-04-10T08:30:32.656Z,14.05
2023-04-10T08:31:32.650Z,14.08
2023-04-10T08:32:32.618Z,14.15
2023-04-10T08:33:32.563Z,14.16
2023-04-10T08:34:32.552Z,14.19
2023-04-10T08:35:32.639Z,14.23
2023-04-10T08:36:32.532Z,14.27
2023-04-10T08:37:32.510Z,14.27
2023-04-10T08:38:32.512Z,14.27
2023-04-10T08:39:32.493Z,14.26
2023-04-10T08:40:32.498Z,14.23
2023-04-10T08:41:32.513Z,14.23
2023-04-10T08:42:34.485Z,14.31
2023-04-10T08:43:32.447Z,14.30
2023-04-10T08:44:32.449Z,14.28
2023-04-10T08:45:32.442Z,14.23
2023-04-10T08:46:32.465Z,14.22
2023-04-10T08:47:32.428Z,14.16
2023-04-10T08:48:32.403Z,14.12
2023-04-10T08:49:32.394Z,14.08
2023-04-10T08:50:32.398Z,14.05
2023-04-10T08:51:32.367Z,14.00
2023-04-10T08:52:32.362Z,13.94
2023-04-10T08:53:32.370Z,13.86
2023-04-10T08:54:32.336Z,13.80
2023-04-10T08:55:32.342Z,13.73
2023-04-10T08:56:32.318Z,13.65
2023-04-10T08:57:32.312Z,13.60
2023-04-10T08:58:32.299Z,13.54
2023-04-10T08:59:32.284Z,13.51
2023-04-10T09:00:32.287Z,13.47
2023-04-10T09:01:32.342Z,13.46
2023-04-10T09:02:32.538Z,13.46
2023-04-10T09:03:32.427Z,13.45
2023-04-10T09:04:32.348Z,13.42
2023-04-10T09:05:32.219Z,13.42
2023-04-10T09:06:32.229Z,13.43
2023-04-10T09:07:32.199Z,13.43
2023-04-10T09:08:32.189Z,13.45
2023-04-10T09:09:32.189Z,13.45
2023-04-10T09:10:32.191Z,13.47
2023-04-10T09:11:32.165Z,13.53
2023-04-10T09:12:32.149Z,13.61
2023-04-10T09:13:32.135Z,13.73
2023-04-10T09:14:03.158Z,13.80
2023-04-10T09:15:03.118Z,14.00
2023-04-10T09:16:03.167Z,14.18
2023-04-10T09:17:03.105Z,14.31
2023-04-10T09:18:03.153Z,14.44
2023-04-10T09:19:05.036Z,14.52
2023-04-10T09:20:03.087Z,14.69
2023-04-10T09:21:03.073Z,14.92
2023-04-10T09:22:03.058Z,15.11
2023-04-10T09:23:03.046Z,15.33
2023-04-10T09:24:03.040Z,15.41
2023-04-10T09:25:03.079Z,15.59
2023-04-10T09:26:03.041Z,15.77
2023-04-10T09:27:03.016Z,15.96
2023-04-10T09:28:02.992Z,16.17
2023-04-10T09:29:02.990Z,16.39
2023-04-10T09:30:02.974Z,16.54
2023-04-10T09:31:03.002Z,16.67
2023-04-10T09:32:02.997Z,16.82
2023-04-10T09:33:03.923Z,16.95
2023-04-10T09:34:02.936Z,17.07
2023-04-10T09:35:02.943Z,17.16
2023-04-10T09:36:02.940Z,17.25
2023-04-10T09:37:02.908Z,17.35
2023-04-10T09:38:02.890Z,17.43
2023-04-10T09:39:02.875Z,17.57
2023-04-10T09:40:02.873Z,17.66
2023-04-10T09:41:02.853Z,17.71
2023-04-10T09:42:02.877Z,17.86
2023-04-10T09:43:02.863Z,18.01
2023-04-10T09:44:02.831Z,18.12
2023-04-10T09:45:02.811Z,18.15
2023-04-10T09:46:02.810Z,18.23
2023-04-10T09:47:02.867Z,18.21
2023-04-10T09:48:02.835Z,18.26
2023-04-10T09:49:02.773Z,18.27
2023-04-10T09:50:02.770Z,18.41
2023-04-10T09:51:02.746Z,18.60
2023-04-10T09:52:02.769Z,18.67
2023-04-10T09:53:02.729Z,18.70
2023-04-10T09:54:02.721Z,18.78
2023-04-10T09:55:02.720Z,18.82
2023-04-10T09:56:02.697Z,18.89
2023-04-10T09:57:02.700Z,19.01
2023-04-10T09:58:02.709Z,19.05
2023-04-10T09:59:02.666Z,19.09
2023-04-10T10:00:02.659Z,19.16
2023-04-10T10:01:02.649Z,19.24
2023-04-10T10:02:02.770Z,19.24
2023-04-10T10:03:02.734Z,19.22
2023-04-10T10:04:02.730Z,19.22
2023-04-10T10:05:02.680Z,19.23
2023-04-10T10:06:02.590Z,19.22
2023-04-10T10:07:02.612Z,19.24
2023-04-10T10:08:02.626Z,19.37
2023-04-10T10:09:02.569Z,19.44
2023-04-10T10:10:02.618Z,19.52
2023-04-10T10:11:02.550Z,19.54
2023-04-10T10:12:02.598Z,19.59
2023-04-10T10:13:02.602Z,19.64
2023-04-10T10:14:02.583Z,19.74
2023-04-10T10:15:02.573Z,19.84
2023-04-10T10:16:02.547Z,19.93
2023-04-10T10:17:02.567Z,19.93
2023-04-10T10:18:02.483Z,19.87
2023-04-10T10:19:02.479Z,19.78
2023-04-10T10:20:02.455Z,19.71
2023-04-10T10:21:02.438Z,19.63
2023-04-10T10:22:02.454Z,19.57
2023-04-10T10:23:02.410Z,19.59
2023-04-10T10:24:02.424Z,19.59
2023-04-10T10:25:02.396Z,19.60
2023-04-10T10:26:03.742Z,19.68
2023-04-10T10:27:02.403Z,19.82
2023-04-10T10:28:02.362Z,19.96
2023-04-10T10:29:02.369Z,20.07
2023-04-10T10:30:08.550Z,20.19
2023-04-10T10:31:03.369Z,20.32
2023-04-10T10:32:02.384Z,20.37
2023-04-10T10:33:02.363Z,20.50
2023-04-10T10:34:02.302Z,20.48
2023-04-10T10:35:02.295Z,20.50
2023-04-10T10:36:02.286Z,20.58
2023-04-10T10:37:02.291Z,20.60
2023-04-10T10:38:02.303Z,20.56
2023-04-10T10:39:02.246Z,20.50
2023-04-10T10:40:02.309Z,20.27
2023-04-10T10:41:02.237Z,20.12
2023-04-10T10:42:02.248Z,20.02
2023-04-10T10:43:02.204Z,19.90
2023-04-10T10:44:02.201Z,19.89
2023-04-10T10:45:02.188Z,19.93
2023-04-10T10:46:02.302Z,19.97
2023-04-10T10:47:02.179Z,19.97
2023-04-10T10:48:02.269Z,20.07
2023-04-10T10:49:02.181Z,20.08
2023-04-10T10:50:02.205Z,20.07
2023-04-10T10:51:02.272Z,20.02
2023-04-10T10:52:02.131Z,19.97
2023-04-10T10:53:02.105Z,19.96
2023-04-10T10:54:02.114Z,19.90
2023-04-10T10:55:02.085Z,19.87
2023-04-10T10:56:02.082Z,19.81
2023-04-10T10:57:02.080Z,19.79
2023-04-10T10:58:02.076Z,19.77
2023-04-10T10:59:02.098Z,19.70
2023-04-10T11:00:02.070Z,19.70
2023-04-10T11:01:02.026Z,19.56
2023-04-10T11:02:02.114Z,19.52
2023-04-10T11:03:03.094Z,19.50
2023-04-10T11:04:02.152Z,19.49
2023-04-10T11:05:01.985Z,19.47
2023-04-10T11:06:01.972Z,19.49
2023-04-10T11:07:02.012Z,19.47
2023-04-10T11:08:01.952Z,19.45
2023-04-10T11:09:01.937Z,19.37
2023-04-10T11:10:01.939Z,19.30
2023-04-10T11:11:01.972Z,19.22
2023-04-10T11:12:01.928Z,19.23
2023-04-10T11:13:01.901Z,19.17
2023-04-10T11:14:01.914Z,19.22
2023-04-10T11:15:01.895Z,19.22
2023-04-10T11:16:01.905Z,19.34
2023-04-10T11:17:01.926Z,19.42
2023-04-10T11:18:01.887Z,19.45
2023-04-10T11:19:13.126Z,19.50
2023-04-10T11:20:02.854Z,19.44
2023-04-10T11:21:01.817Z,19.41
2023-04-10T11:22:01.837Z,19.45
2023-04-10T11:23:01.835Z,19.52
2023-04-10T11:24:01.784Z,19.54
2023-04-10T11:25:01.776Z,19.59
2023-04-10T11:26:01.766Z,19.62
2023-04-10T11:27:01.772Z,19.63
2023-04-10T11:28:01.752Z,19.56
2023-04-10T11:29:01.780Z,19.53
2023-04-10T11:30:01.791Z,19.56
2023-04-10T11:31:01.718Z,19.50
2023-04-10T11:32:01.802Z,19.53
2023-04-10T11:33:01.775Z,19.54
2023-04-10T11:34:01.712Z,19.60
2023-04-10T11:35:03.706Z,19.64
2023-04-10T11:36:01.729Z,19.67
2023-04-10T11:37:01.670Z,19.62
2023-04-10T11:38:01.665Z,19.60
2023-04-10T11:39:01.652Z,19.59
2023-04-10T11:40:01.618Z,19.67
2023-04-10T11:41:01.742Z,19.67
2023-04-10T11:42:01.671Z,19.67
2023-04-10T11:43:01.580Z,19.68
2023-04-10T11:44:01.618Z,19.71
2023-04-10T11:45:01.565Z,19.75
2023-04-10T11:46:01.631Z,19.70
2023-04-10T11:47:01.559Z,19.72
2023-04-10T11:48:01.601Z,19.77
2023-04-10T11:49:01.589Z,19.78
2023-04-10T11:50:01.511Z,19.79
2023-04-10T11:51:01.506Z,19.81
2023-04-10T11:52:01.527Z,19.90
2023-04-10T11:53:01.497Z,19.99
2023-04-10T11:54:01.470Z,20.05
2023-04-10T11:55:01.490Z,20.11
2023-04-10T11:56:01.480Z,20.19
2023-04-10T11:57:01.457Z,20.19
2023-04-10T11:58:01.426Z,20.22
2023-04-10T11:59:01.428Z,20.22
2023-04-10T12:00:01.418Z,20.27
2023-04-10T12:01:01.419Z,20.34
2023-04-10T12:02:01.462Z,20.39
2023-04-10T12:03:01.513Z,20.37
2023-04-10T12:04:01.495Z,20.37
2023-04-10T12:05:01.444Z,20.27
2023-04-10T12:06:01.353Z,20.15
2023-04-10T12:07:01.364Z,20.00
2023-04-10T12:08:01.333Z,19.92
2023-04-10T12:09:01.339Z,19.86
2023-04-10T12:10:01.333Z,19.71
2023-04-10T12:11:01.301Z,19.54
2023-04-10T12:12:01.321Z,19.49
2023-04-10T12:13:01.289Z,19.41
2023-04-10T12:14:01.266Z,19.30
2023-04-10T12:15:01.252Z,19.19
2023-04-10T12:16:01.322Z,19.12
2023-04-10T12:17:01.251Z,19.04
2023-04-10T12:18:01.278Z,19.00
2023-04-10T12:19:01.225Z,18.91
2023-04-10T12:20:01.208Z,18.88
2023-04-10T12:21:01.195Z,18.85
2023-04-10T12:22:01.202Z,18.81
2023-04-10T12:23:01.166Z,18.76
2023-04-10T12:24:01.155Z,18.67
2023-04-10T12:25:01.148Z,18.58
2023-04-10T12:26:01.154Z,18.54
2023-04-10T12:27:01.591Z,18.52
2023-04-10T12:28:01.135Z,18.52
2023-04-10T12:29:01.110Z,18.46
2023-04-10T12:30:01.089Z,18.39
2023-04-10T12:31:01.104Z,18.31
2023-04-10T12:32:01.086Z,18.30
2023-04-10T12:33:01.105Z,18.26
2023-04-10T12:34:01.112Z,18.20
2023-04-10T12:35:01.050Z,18.17
2023-04-10T12:36:01.158Z,18.15
2023-04-10T12:37:01.088Z,18.13
2023-04-10T12:38:01.038Z,18.15
2023-04-10T12:39:01.018Z,18.17
2023-04-10T12:40:01.019Z,18.18
2023-04-10T12:41:00.978Z,18.15
2023-04-10T12:42:00.970Z,18.15
2023-04-10T12:43:00.991Z,18.15
2023-04-10T12:44:00.958Z,18.13
2023-04-10T12:45:00.978Z,18.12
2023-04-10T12:46:01.029Z,18.12
2023-04-10T12:47:00.980Z,18.11
2023-04-10T12:48:00.977Z,18.06
2023-04-10T12:49:00.899Z,18.03
2023-04-10T12:50:00.900Z,18.02
2023-04-10T12:51:00.892Z,18.01
2023-04-10T12:52:00.863Z,17.96
2023-04-10T12:53:00.894Z,17.94
2023-04-10T12:54:00.856Z,17.93
2023-04-10T12:55:00.842Z,17.96
2023-04-10T12:56:00.873Z,17.96
2023-04-10T12:57:00.848Z,17.93
2023-04-10T12:58:00.826Z,17.91
2023-04-10T12:59:00.812Z,17.91
2023-04-10T13:00:00.811Z,17.91
2023-04-10T13:01:00.783Z,17.90
2023-04-10T13:02:00.845Z,17.91
2023-04-10T13:03:01.074Z,17.93
2023-04-10T13:04:00.918Z,17.94
2023-04-10T13:05:00.755Z,17.94
2023-04-10T13:06:00.725Z,17.90
2023-04-10T13:07:00.742Z,17.83